KNUW/NUW METAR and TAF weather

Enter ICAO airport designator
Station Type Date Time Source
KNUW METAR 2019/07/20 04:56 UTC NOAA

KNUW 200456Z 00000KT 10SM FEW060 FEW250 13/09 A3017 RMK AO2 SLP216 T01330094 $


Station Type Date Time Source
KNUW Decoded METAR 2019/07/20 04:56 UTC NOAA

NAS WHIDBEY ISLAND, WA, United States (KNUW) 48-21N 122-39W 8M
Jul 20, 2019 - 12:56 AM EDT / 2019.07.20 0456 UTC
Wind: Calm:0
Visibility: 10 mile(s):0
Sky conditions: mostly clear
Temperature: 55.9 F (13.3 C)
Dew Point: 48.9 F (9.4 C)
Relative Humidity: 77%
Pressure (altimeter): 30.17 in. Hg (1021 hPa)
ob: KNUW 200456Z 00000KT 10SM FEW060 FEW250 13/09 A3017 RMK AO2 SLP216 T01330094
cycle: 5

Station Type Date Time Source
KNUW TAF 2019/07/19 23:58 UTC NOAA

TAF KNUW 1923/2023 26008KT 9999 FEW030 SCT050 SCT250 QNH3015INS
FM200600 VRB06KT 9999 FEW030 SCT050 QNH3014INS
TEMPO 2009/2015 9000 BR BCFG FEW012
FM201800 28010KT 9999 FEW030 FEW250 QNH3012INS T21/1923Z T12/2011Z FS30028

Example: see airport list